sensor_id;sensor_type;location;lat;lon;timestamp;P1;durP1;ratioP1;P2;durP2;ratioP2
6735;SDS011;3405;50.576;12.364;2023-02-22T00:00:09;8.75;;;5.43;;
6735;SDS011;3405;50.576;12.364;2023-02-22T00:02:53;7.53;;;5.40;;
6735;SDS011;3405;50.576;12.364;2023-02-22T00:05:23;7.40;;;5.28;;
6735;SDS011;3405;50.576;12.364;2023-02-22T00:07:50;7.43;;;5.55;;
6735;SDS011;3405;50.576;12.364;2023-02-22T00:10:16;7.95;;;5.43;;
6735;SDS011;3405;50.576;12.364;2023-02-22T00:12:46;6.72;;;4.97;;
6735;SDS011;3405;50.576;12.364;2023-02-22T00:15:14;8.18;;;5.70;;
6735;SDS011;3405;50.576;12.364;2023-02-22T00:17:40;7.57;;;5.32;;
6735;SDS011;3405;50.576;12.364;2023-02-22T00:20:07;6.85;;;5.05;;
6735;SDS011;3405;50.576;12.364;2023-02-22T00:22:38;6.68;;;4.95;;
6735;SDS011;3405;50.576;12.364;2023-02-22T00:25:04;6.07;;;4.53;;
6735;SDS011;3405;50.576;12.364;2023-02-22T00:27:30;5.75;;;4.85;;
6735;SDS011;3405;50.576;12.364;2023-02-22T00:29:56;5.47;;;4.70;;
6735;SDS011;3405;50.576;12.364;2023-02-22T00:32:22;8.07;;;5.40;;
6735;SDS011;3405;50.576;12.364;2023-02-22T00:34:52;6.10;;;4.55;;
6735;SDS011;3405;50.576;12.364;2023-02-22T00:37:19;7.22;;;5.20;;
6735;SDS011;3405;50.576;12.364;2023-02-22T00:39:45;6.18;;;4.90;;
6735;SDS011;3405;50.576;12.364;2023-02-22T00:42:12;6.22;;;4.70;;
6735;SDS011;3405;50.576;12.364;2023-02-22T00:44:38;5.88;;;4.63;;
6735;SDS011;3405;50.576;12.364;2023-02-22T00:47:04;5.88;;;4.30;;
6735;SDS011;3405;50.576;12.364;2023-02-22T00:49:29;5.05;;;4.03;;
6735;SDS011;3405;50.576;12.364;2023-02-22T00:51:55;5.63;;;4.68;;
6735;SDS011;3405;50.576;12.364;2023-02-22T00:54:21;7.32;;;4.93;;
6735;SDS011;3405;50.576;12.364;2023-02-22T00:56:47;5.50;;;4.30;;
6735;SDS011;3405;50.576;12.364;2023-02-22T00:59:14;6.75;;;4.45;;
6735;SDS011;3405;50.576;12.364;2023-02-22T01:01:40;6.40;;;4.80;;
6735;SDS011;3405;50.576;12.364;2023-02-22T01:04:07;5.18;;;4.45;;
6735;SDS011;3405;50.576;12.364;2023-02-22T01:06:33;5.93;;;4.45;;
6735;SDS011;3405;50.576;12.364;2023-02-22T01:08:59;5.10;;;4.20;;
6735;SDS011;3405;50.576;12.364;2023-02-22T01:11:26;6.05;;;4.30;;
6735;SDS011;3405;50.576;12.364;2023-02-22T01:13:52;5.32;;;4.35;;
6735;SDS011;3405;50.576;12.364;2023-02-22T01:16:19;5.95;;;4.45;;
6735;SDS011;3405;50.576;12.364;2023-02-22T01:18:45;6.97;;;4.75;;
6735;SDS011;3405;50.576;12.364;2023-02-22T01:21:11;5.80;;;4.15;;
6735;SDS011;3405;50.576;12.364;2023-02-22T01:23:37;5.53;;;4.13;;
6735;SDS011;3405;50.576;12.364;2023-02-22T01:26:03;4.70;;;3.70;;
6735;SDS011;3405;50.576;12.364;2023-02-22T01:28:30;5.72;;;4.30;;
6735;SDS011;3405;50.576;12.364;2023-02-22T01:30:56;4.57;;;3.85;;
6735;SDS011;3405;50.576;12.364;2023-02-22T01:33:22;4.60;;;3.92;;
6735;SDS011;3405;50.576;12.364;2023-02-22T01:35:48;5.30;;;4.05;;
6735;SDS011;3405;50.576;12.364;2023-02-22T01:38:15;5.32;;;3.92;;
6735;SDS011;3405;50.576;12.364;2023-02-22T01:40:42;4.80;;;4.05;;
6735;SDS011;3405;50.576;12.364;2023-02-22T01:43:22;5.97;;;4.07;;
6735;SDS011;3405;50.576;12.364;2023-02-22T01:48:19;5.07;;;3.92;;
6735;SDS011;3405;50.576;12.364;2023-02-22T01:50:54;4.80;;;3.92;;
6735;SDS011;3405;50.576;12.364;2023-02-22T01:53:32;4.78;;;3.80;;
6735;SDS011;3405;50.576;12.364;2023-02-22T01:56:00;5.28;;;3.95;;
6735;SDS011;3405;50.576;12.364;2023-02-22T01:58:26;4.80;;;3.63;;
6735;SDS011;3405;50.576;12.364;2023-02-22T02:00:53;4.72;;;3.75;;
6735;SDS011;3405;50.576;12.364;2023-02-22T02:03:20;4.53;;;3.63;;
6735;SDS011;3405;50.576;12.364;2023-02-22T02:05:48;5.10;;;3.45;;
6735;SDS011;3405;50.576;12.364;2023-02-22T02:08:23;4.53;;;4.00;;
6735;SDS011;3405;50.576;12.364;2023-02-22T02:10:50;3.67;;;3.33;;
6735;SDS011;3405;50.576;12.364;2023-02-22T02:13:18;4.55;;;3.60;;
6735;SDS011;3405;50.576;12.364;2023-02-22T02:15:44;5.07;;;3.78;;
6735;SDS011;3405;50.576;12.364;2023-02-22T02:18:11;4.40;;;3.60;;
6735;SDS011;3405;50.576;12.364;2023-02-22T02:20:43;5.35;;;3.72;;
6735;SDS011;3405;50.576;12.364;2023-02-22T02:26:00;3.65;;;3.20;;
6735;SDS011;3405;50.576;12.364;2023-02-22T02:31:22;4.13;;;3.20;;
6735;SDS011;3405;50.576;12.364;2023-02-22T02:36:53;4.25;;;2.83;;
6735;SDS011;3405;50.576;12.364;2023-02-22T02:39:34;5.03;;;3.30;;
6735;SDS011;3405;50.576;12.364;2023-02-22T02:42:02;3.60;;;3.10;;
6735;SDS011;3405;50.576;12.364;2023-02-22T02:44:32;3.20;;;2.88;;
6735;SDS011;3405;50.576;12.364;2023-02-22T02:47:02;3.50;;;3.10;;
6735;SDS011;3405;50.576;12.364;2023-02-22T02:49:48;3.35;;;3.05;;
6735;SDS011;3405;50.576;12.364;2023-02-22T02:52:17;3.30;;;3.00;;
6735;SDS011;3405;50.576;12.364;2023-02-22T02:54:43;3.63;;;3.20;;
6735;SDS011;3405;50.576;12.364;2023-02-22T02:57:10;3.83;;;2.78;;
6735;SDS011;3405;50.576;12.364;2023-02-22T02:59:36;4.18;;;2.97;;
6735;SDS011;3405;50.576;12.364;2023-02-22T03:05:10;3.20;;;2.67;;
6735;SDS011;3405;50.576;12.364;2023-02-22T03:10:34;3.33;;;3.03;;
6735;SDS011;3405;50.576;12.364;2023-02-22T03:13:18;2.90;;;2.60;;
6735;SDS011;3405;50.576;12.364;2023-02-22T03:15:54;3.10;;;2.75;;
6735;SDS011;3405;50.576;12.364;2023-02-22T03:18:27;3.55;;;2.97;;
6735;SDS011;3405;50.576;12.364;2023-02-22T03:23:21;3.90;;;2.83;;
6735;SDS011;3405;50.576;12.364;2023-02-22T03:26:08;3.42;;;2.65;;
6735;SDS011;3405;50.576;12.364;2023-02-22T03:28:36;3.97;;;3.10;;
6735;SDS011;3405;50.576;12.364;2023-02-22T03:31:06;3.35;;;2.90;;
6735;SDS011;3405;50.576;12.364;2023-02-22T03:36:08;2.92;;;2.38;;
6735;SDS011;3405;50.576;12.364;2023-02-22T03:38:37;3.13;;;2.80;;
6735;SDS011;3405;50.576;12.364;2023-02-22T03:41:04;2.80;;;2.60;;
6735;SDS011;3405;50.576;12.364;2023-02-22T03:43:37;3.17;;;2.78;;
6735;SDS011;3405;50.576;12.364;2023-02-22T03:46:03;2.55;;;2.35;;
6735;SDS011;3405;50.576;12.364;2023-02-22T03:51:15;2.88;;;2.25;;
6735;SDS011;3405;50.576;12.364;2023-02-22T03:53:42;2.40;;;2.20;;
6735;SDS011;3405;50.576;12.364;2023-02-22T03:56:09;2.78;;;2.58;;
6735;SDS011;3405;50.576;12.364;2023-02-22T03:58:38;2.83;;;2.58;;
6735;SDS011;3405;50.576;12.364;2023-02-22T04:01:07;3.63;;;2.42;;
6735;SDS011;3405;50.576;12.364;2023-02-22T04:03:33;2.78;;;2.55;;
6735;SDS011;3405;50.576;12.364;2023-02-22T04:05:59;2.92;;;2.63;;
6735;SDS011;3405;50.576;12.364;2023-02-22T04:08:25;4.30;;;2.80;;
6735;SDS011;3405;50.576;12.364;2023-02-22T04:10:51;3.13;;;2.83;;
6735;SDS011;3405;50.576;12.364;2023-02-22T04:13:17;2.80;;;2.55;;
6735;SDS011;3405;50.576;12.364;2023-02-22T04:15:43;2.53;;;2.33;;
6735;SDS011;3405;50.576;12.364;2023-02-22T04:18:09;2.75;;;2.30;;
6735;SDS011;3405;50.576;12.364;2023-02-22T04:20:35;2.83;;;2.30;;
6735;SDS011;3405;50.576;12.364;2023-02-22T04:23:01;2.53;;;2.33;;
6735;SDS011;3405;50.576;12.364;2023-02-22T04:25:27;3.53;;;2.72;;
6735;SDS011;3405;50.576;12.364;2023-02-22T04:27:53;3.53;;;2.70;;
6735;SDS011;3405;50.576;12.364;2023-02-22T04:30:19;2.72;;;2.33;;
6735;SDS011;3405;50.576;12.364;2023-02-22T04:32:45;3.40;;;2.53;;
6735;SDS011;3405;50.576;12.364;2023-02-22T04:35:11;2.72;;;2.53;;
6735;SDS011;3405;50.576;12.364;2023-02-22T04:37:36;2.55;;;2.25;;
6735;SDS011;3405;50.576;12.364;2023-02-22T04:40:03;2.85;;;2.28;;
6735;SDS011;3405;50.576;12.364;2023-02-22T04:42:33;4.03;;;2.65;;
6735;SDS011;3405;50.576;12.364;2023-02-22T04:44:59;2.65;;;2.33;;
6735;SDS011;3405;50.576;12.364;2023-02-22T04:47:25;3.78;;;2.40;;
6735;SDS011;3405;50.576;12.364;2023-02-22T04:49:51;3.08;;;2.70;;
6735;SDS011;3405;50.576;12.364;2023-02-22T04:52:16;3.35;;;2.55;;
6735;SDS011;3405;50.576;12.364;2023-02-22T04:54:42;3.13;;;2.42;;
6735;SDS011;3405;50.576;12.364;2023-02-22T04:57:08;4.18;;;2.60;;
6735;SDS011;3405;50.576;12.364;2023-02-22T04:59:34;3.00;;;2.33;;
6735;SDS011;3405;50.576;12.364;2023-02-22T05:02:00;8.65;;;2.75;;
6735;SDS011;3405;50.576;12.364;2023-02-22T05:04:26;11.35;;;3.83;;
6735;SDS011;3405;50.576;12.364;2023-02-22T05:06:52;10.40;;;4.35;;
6735;SDS011;3405;50.576;12.364;2023-02-22T05:09:18;9.50;;;3.70;;
6735;SDS011;3405;50.576;12.364;2023-02-22T05:11:44;9.68;;;4.28;;
6735;SDS011;3405;50.576;12.364;2023-02-22T05:14:10;9.00;;;3.90;;
6735;SDS011;3405;50.576;12.364;2023-02-22T05:16:36;8.85;;;3.72;;
6735;SDS011;3405;50.576;12.364;2023-02-22T05:19:02;9.70;;;3.83;;
6735;SDS011;3405;50.576;12.364;2023-02-22T05:21:28;7.68;;;3.67;;
6735;SDS011;3405;50.576;12.364;2023-02-22T05:23:54;9.45;;;3.63;;
6735;SDS011;3405;50.576;12.364;2023-02-22T05:26:21;8.00;;;2.85;;
6735;SDS011;3405;50.576;12.364;2023-02-22T05:28:47;9.30;;;3.25;;
6735;SDS011;3405;50.576;12.364;2023-02-22T05:31:13;9.77;;;3.53;;
6735;SDS011;3405;50.576;12.364;2023-02-22T05:33:39;6.35;;;2.92;;
6735;SDS011;3405;50.576;12.364;2023-02-22T05:36:06;6.05;;;3.00;;
6735;SDS011;3405;50.576;12.364;2023-02-22T05:38:32;7.97;;;3.30;;
6735;SDS011;3405;50.576;12.364;2023-02-22T05:40:58;5.30;;;3.28;;
6735;SDS011;3405;50.576;12.364;2023-02-22T05:43:24;9.77;;;3.75;;
6735;SDS011;3405;50.576;12.364;2023-02-22T05:45:50;8.63;;;3.42;;
6735;SDS011;3405;50.576;12.364;2023-02-22T05:48:16;4.55;;;3.20;;
6735;SDS011;3405;50.576;12.364;2023-02-22T05:50:42;6.20;;;3.13;;
6735;SDS011;3405;50.576;12.364;2023-02-22T05:53:08;7.32;;;3.13;;
6735;SDS011;3405;50.576;12.364;2023-02-22T05:55:34;6.65;;;3.38;;
6735;SDS011;3405;50.576;12.364;2023-02-22T05:58:00;9.23;;;3.05;;
6735;SDS011;3405;50.576;12.364;2023-02-22T06:00:29;6.68;;;3.05;;
6735;SDS011;3405;50.576;12.364;2023-02-22T06:02:56;7.45;;;3.03;;
6735;SDS011;3405;50.576;12.364;2023-02-22T06:05:22;6.53;;;3.60;;
6735;SDS011;3405;50.576;12.364;2023-02-22T06:07:48;6.15;;;3.10;;
6735;SDS011;3405;50.576;12.364;2023-02-22T06:10:15;5.93;;;2.85;;
6735;SDS011;3405;50.576;12.364;2023-02-22T06:12:41;6.03;;;3.30;;
6735;SDS011;3405;50.576;12.364;2023-02-22T06:15:08;5.65;;;2.92;;
6735;SDS011;3405;50.576;12.364;2023-02-22T06:17:34;7.70;;;3.10;;
6735;SDS011;3405;50.576;12.364;2023-02-22T06:20:00;5.80;;;3.30;;
6735;SDS011;3405;50.576;12.364;2023-02-22T06:22:26;4.22;;;2.90;;
6735;SDS011;3405;50.576;12.364;2023-02-22T06:24:52;5.25;;;2.75;;
6735;SDS011;3405;50.576;12.364;2023-02-22T06:27:18;5.05;;;3.00;;
6735;SDS011;3405;50.576;12.364;2023-02-22T06:29:45;5.13;;;2.97;;
6735;SDS011;3405;50.576;12.364;2023-02-22T06:32:11;6.18;;;3.20;;
6735;SDS011;3405;50.576;12.364;2023-02-22T06:34:37;6.15;;;2.95;;
6735;SDS011;3405;50.576;12.364;2023-02-22T06:37:05;3.97;;;2.70;;
6735;SDS011;3405;50.576;12.364;2023-02-22T06:39:31;3.58;;;2.67;;
6735;SDS011;3405;50.576;12.364;2023-02-22T06:41:56;4.72;;;2.60;;
6735;SDS011;3405;50.576;12.364;2023-02-22T06:44:24;5.13;;;2.58;;
6735;SDS011;3405;50.576;12.364;2023-02-22T06:46:49;5.85;;;2.70;;
6735;SDS011;3405;50.576;12.364;2023-02-22T06:49:16;4.65;;;2.53;;
6735;SDS011;3405;50.576;12.364;2023-02-22T06:51:42;5.00;;;2.88;;
6735;SDS011;3405;50.576;12.364;2023-02-22T06:54:08;3.80;;;2.40;;
6735;SDS011;3405;50.576;12.364;2023-02-22T06:56:34;3.25;;;2.30;;
6735;SDS011;3405;50.576;12.364;2023-02-22T06:59:00;3.58;;;2.30;;
6735;SDS011;3405;50.576;12.364;2023-02-22T07:01:26;4.38;;;2.55;;
6735;SDS011;3405;50.576;12.364;2023-02-22T07:03:52;5.82;;;3.00;;
6735;SDS011;3405;50.576;12.364;2023-02-22T07:06:18;3.15;;;2.38;;
6735;SDS011;3405;50.576;12.364;2023-02-22T07:08:43;4.97;;;2.95;;
6735;SDS011;3405;50.576;12.364;2023-02-22T07:11:09;3.90;;;2.30;;
6735;SDS011;3405;50.576;12.364;2023-02-22T07:13:35;2.97;;;2.47;;
6735;SDS011;3405;50.576;12.364;2023-02-22T07:16:01;4.88;;;2.47;;
6735;SDS011;3405;50.576;12.364;2023-02-22T07:18:28;4.00;;;2.60;;
6735;SDS011;3405;50.576;12.364;2023-02-22T07:20:54;4.68;;;2.40;;
6735;SDS011;3405;50.576;12.364;2023-02-22T07:23:20;3.78;;;2.42;;
6735;SDS011;3405;50.576;12.364;2023-02-22T07:25:46;5.10;;;2.60;;
6735;SDS011;3405;50.576;12.364;2023-02-22T07:28:12;5.97;;;2.92;;
6735;SDS011;3405;50.576;12.364;2023-02-22T07:30:38;4.20;;;2.60;;
6735;SDS011;3405;50.576;12.364;2023-02-22T07:33:06;3.22;;;2.20;;
6735;SDS011;3405;50.576;12.364;2023-02-22T07:35:53;3.55;;;2.45;;
6735;SDS011;3405;50.576;12.364;2023-02-22T07:38:18;4.68;;;2.60;;
6735;SDS011;3405;50.576;12.364;2023-02-22T07:40:45;2.40;;;2.10;;
6735;SDS011;3405;50.576;12.364;2023-02-22T07:43:18;2.83;;;2.28;;
6735;SDS011;3405;50.576;12.364;2023-02-22T07:45:44;2.90;;;2.13;;
6735;SDS011;3405;50.576;12.364;2023-02-22T07:48:10;3.55;;;2.30;;
6735;SDS011;3405;50.576;12.364;2023-02-22T07:50:36;3.13;;;2.30;;
6735;SDS011;3405;50.576;12.364;2023-02-22T07:53:03;3.50;;;2.22;;
6735;SDS011;3405;50.576;12.364;2023-02-22T07:55:30;4.30;;;2.50;;
6735;SDS011;3405;50.576;12.364;2023-02-22T07:57:57;3.55;;;2.20;;
6735;SDS011;3405;50.576;12.364;2023-02-22T08:00:25;5.20;;;2.53;;
6735;SDS011;3405;50.576;12.364;2023-02-22T08:02:51;2.85;;;2.35;;
6735;SDS011;3405;50.576;12.364;2023-02-22T08:05:17;2.90;;;2.20;;
6735;SDS011;3405;50.576;12.364;2023-02-22T08:07:44;2.97;;;2.35;;
6735;SDS011;3405;50.576;12.364;2023-02-22T08:10:10;4.55;;;2.47;;
6735;SDS011;3405;50.576;12.364;2023-02-22T08:12:36;3.88;;;2.50;;
6735;SDS011;3405;50.576;12.364;2023-02-22T08:15:03;2.22;;;1.95;;
6735;SDS011;3405;50.576;12.364;2023-02-22T08:17:29;3.80;;;2.30;;
6735;SDS011;3405;50.576;12.364;2023-02-22T08:19:55;3.15;;;2.00;;
6735;SDS011;3405;50.576;12.364;2023-02-22T08:22:21;2.92;;;2.15;;
6735;SDS011;3405;50.576;12.364;2023-02-22T08:24:48;2.80;;;2.13;;
6735;SDS011;3405;50.576;12.364;2023-02-22T08:27:21;3.17;;;2.40;;
6735;SDS011;3405;50.576;12.364;2023-02-22T08:29:47;4.38;;;2.40;;
6735;SDS011;3405;50.576;12.364;2023-02-22T08:32:13;2.78;;;1.90;;
6735;SDS011;3405;50.576;12.364;2023-02-22T08:34:41;4.20;;;2.20;;
6735;SDS011;3405;50.576;12.364;2023-02-22T08:37:06;2.22;;;1.85;;
6735;SDS011;3405;50.576;12.364;2023-02-22T08:39:32;2.08;;;1.83;;
6735;SDS011;3405;50.576;12.364;2023-02-22T08:41:58;2.78;;;1.95;;
6735;SDS011;3405;50.576;12.364;2023-02-22T08:44:24;3.97;;;2.40;;
6735;SDS011;3405;50.576;12.364;2023-02-22T08:46:50;3.22;;;2.10;;
6735;SDS011;3405;50.576;12.364;2023-02-22T08:49:16;2.50;;;1.92;;
6735;SDS011;3405;50.576;12.364;2023-02-22T08:51:42;2.30;;;1.70;;
6735;SDS011;3405;50.576;12.364;2023-02-22T08:54:08;2.70;;;2.00;;
6735;SDS011;3405;50.576;12.364;2023-02-22T08:56:34;2.67;;;1.77;;
6735;SDS011;3405;50.576;12.364;2023-02-22T08:59:00;2.70;;;1.83;;
6735;SDS011;3405;50.576;12.364;2023-02-22T09:01:26;3.13;;;2.22;;
6735;SDS011;3405;50.576;12.364;2023-02-22T09:03:53;1.92;;;1.80;;
6735;SDS011;3405;50.576;12.364;2023-02-22T09:06:20;2.05;;;1.88;;
6735;SDS011;3405;50.576;12.364;2023-02-22T09:08:46;3.00;;;1.80;;
6735;SDS011;3405;50.576;12.364;2023-02-22T09:11:12;2.88;;;2.13;;
6735;SDS011;3405;50.576;12.364;2023-02-22T09:13:37;2.55;;;2.00;;
6735;SDS011;3405;50.576;12.364;2023-02-22T09:16:03;2.60;;;2.22;;
6735;SDS011;3405;50.576;12.364;2023-02-22T09:18:29;2.33;;;1.90;;
6735;SDS011;3405;50.576;12.364;2023-02-22T09:20:56;2.92;;;1.90;;
6735;SDS011;3405;50.576;12.364;2023-02-22T09:23:22;3.42;;;1.95;;
6735;SDS011;3405;50.576;12.364;2023-02-22T09:25:48;1.95;;;1.80;;
6735;SDS011;3405;50.576;12.364;2023-02-22T09:28:14;2.40;;;1.80;;
6735;SDS011;3405;50.576;12.364;2023-02-22T09:30:40;2.15;;;1.80;;
6735;SDS011;3405;50.576;12.364;2023-02-22T09:33:16;1.88;;;1.50;;
6735;SDS011;3405;50.576;12.364;2023-02-22T09:35:43;3.63;;;1.90;;
6735;SDS011;3405;50.576;12.364;2023-02-22T09:38:10;1.50;;;1.38;;
6735;SDS011;3405;50.576;12.364;2023-02-22T09:40:37;2.25;;;1.88;;
6735;SDS011;3405;50.576;12.364;2023-02-22T09:44:02;2.15;;;1.70;;
6735;SDS011;3405;50.576;12.364;2023-02-22T09:46:04;2.10;;;1.90;;
6735;SDS011;3405;50.576;12.364;2023-02-22T09:48:35;2.58;;;1.75;;
6735;SDS011;3405;50.576;12.364;2023-02-22T09:51:08;3.88;;;1.88;;
6735;SDS011;3405;50.576;12.364;2023-02-22T09:53:38;2.63;;;1.52;;
6735;SDS011;3405;50.576;12.364;2023-02-22T09:56:06;2.35;;;1.70;;
6735;SDS011;3405;50.576;12.364;2023-02-22T09:58:58;2.65;;;1.88;;
6735;SDS011;3405;50.576;12.364;2023-02-22T10:01:35;1.50;;;1.33;;
6735;SDS011;3405;50.576;12.364;2023-02-22T10:04:18;1.70;;;1.60;;
6735;SDS011;3405;50.576;12.364;2023-02-22T10:07:29;1.85;;;1.67;;
6735;SDS011;3405;50.576;12.364;2023-02-22T10:09:36;1.67;;;1.58;;
6735;SDS011;3405;50.576;12.364;2023-02-22T10:12:09;2.25;;;1.65;;
6735;SDS011;3405;50.576;12.364;2023-02-22T10:14:45;2.15;;;1.77;;
6735;SDS011;3405;50.576;12.364;2023-02-22T10:22:54;2.70;;;1.73;;
6735;SDS011;3405;50.576;12.364;2023-02-22T10:25:23;2.33;;;1.50;;
6735;SDS011;3405;50.576;12.364;2023-02-22T10:30:19;1.73;;;1.63;;
6735;SDS011;3405;50.576;12.364;2023-02-22T10:32:46;1.65;;;1.55;;
6735;SDS011;3405;50.576;12.364;2023-02-22T10:35:21;1.50;;;1.40;;
6735;SDS011;3405;50.576;12.364;2023-02-22T10:37:48;1.60;;;1.50;;
6735;SDS011;3405;50.576;12.364;2023-02-22T10:40:18;2.00;;;1.80;;
6735;SDS011;3405;50.576;12.364;2023-02-22T10:42:46;1.58;;;1.48;;
6735;SDS011;3405;50.576;12.364;2023-02-22T10:45:46;1.77;;;1.35;;
6735;SDS011;3405;50.576;12.364;2023-02-22T10:48:10;1.55;;;1.45;;
6735;SDS011;3405;50.576;12.364;2023-02-22T10:50:37;1.27;;;1.17;;
6735;SDS011;3405;50.576;12.364;2023-02-22T10:53:04;2.13;;;1.67;;
6735;SDS011;3405;50.576;12.364;2023-02-22T10:55:30;2.97;;;1.40;;
6735;SDS011;3405;50.576;12.364;2023-02-22T10:58:00;2.08;;;1.65;;
6735;SDS011;3405;50.576;12.364;2023-02-22T11:00:29;1.70;;;1.60;;
6735;SDS011;3405;50.576;12.364;2023-02-22T11:02:57;1.30;;;1.20;;
6735;SDS011;3405;50.576;12.364;2023-02-22T11:05:36;2.30;;;1.60;;
6735;SDS011;3405;50.576;12.364;2023-02-22T11:08:18;2.05;;;1.60;;
6735;SDS011;3405;50.576;12.364;2023-02-22T11:10:47;1.70;;;1.25;;
6735;SDS011;3405;50.576;12.364;2023-02-22T11:15:43;1.60;;;1.50;;
6735;SDS011;3405;50.576;12.364;2023-02-22T11:18:42;1.50;;;1.40;;
6735;SDS011;3405;50.576;12.364;2023-02-22T11:21:05;1.35;;;1.15;;
6735;SDS011;3405;50.576;12.364;2023-02-22T11:23:32;2.10;;;1.40;;
6735;SDS011;3405;50.576;12.364;2023-02-22T11:26:00;1.48;;;1.38;;
6735;SDS011;3405;50.576;12.364;2023-02-22T11:28:27;1.67;;;1.45;;
6735;SDS011;3405;50.576;12.364;2023-02-22T11:31:20;1.52;;;1.30;;
6735;SDS011;3405;50.576;12.364;2023-02-22T11:33:56;1.33;;;1.23;;
6735;SDS011;3405;50.576;12.364;2023-02-22T11:36:35;1.48;;;1.20;;
6735;SDS011;3405;50.576;12.364;2023-02-22T11:39:05;1.17;;;1.13;;
6735;SDS011;3405;50.576;12.364;2023-02-22T11:41:35;1.35;;;1.25;;
6735;SDS011;3405;50.576;12.364;2023-02-22T11:44:11;1.80;;;1.45;;
6735;SDS011;3405;50.576;12.364;2023-02-22T11:46:38;1.88;;;1.50;;
6735;SDS011;3405;50.576;12.364;2023-02-22T11:49:08;1.38;;;1.27;;
6735;SDS011;3405;50.576;12.364;2023-02-22T11:54:16;1.85;;;1.17;;
6735;SDS011;3405;50.576;12.364;2023-02-22T11:56:50;1.10;;;1.08;;
6735;SDS011;3405;50.576;12.364;2023-02-22T11:59:25;1.20;;;1.10;;
6735;SDS011;3405;50.576;12.364;2023-02-22T12:01:56;1.35;;;1.25;;
6735;SDS011;3405;50.576;12.364;2023-02-22T12:09:41;1.30;;;1.20;;
6735;SDS011;3405;50.576;12.364;2023-02-22T12:12:27;1.35;;;1.23;;
6735;SDS011;3405;50.576;12.364;2023-02-22T12:15:30;1.65;;;1.38;;
6735;SDS011;3405;50.576;12.364;2023-02-22T12:20:21;1.73;;;1.20;;
6735;SDS011;3405;50.576;12.364;2023-02-22T12:25:28;1.30;;;1.20;;
6735;SDS011;3405;50.576;12.364;2023-02-22T12:28:12;1.80;;;1.55;;
6735;SDS011;3405;50.576;12.364;2023-02-22T12:30:41;1.38;;;1.27;;
6735;SDS011;3405;50.576;12.364;2023-02-22T12:33:11;1.40;;;1.30;;
6735;SDS011;3405;50.576;12.364;2023-02-22T12:35:39;1.88;;;1.30;;
6735;SDS011;3405;50.576;12.364;2023-02-22T12:38:23;2.35;;;1.40;;
6735;SDS011;3405;50.576;12.364;2023-02-22T12:40:56;2.13;;;1.60;;
6735;SDS011;3405;50.576;12.364;2023-02-22T12:43:31;1.33;;;1.20;;
6735;SDS011;3405;50.576;12.364;2023-02-22T12:46:05;1.50;;;1.40;;
6735;SDS011;3405;50.576;12.364;2023-02-22T12:53:51;1.40;;;1.30;;
6735;SDS011;3405;50.576;12.364;2023-02-22T12:56:23;1.20;;;1.10;;
6735;SDS011;3405;50.576;12.364;2023-02-22T12:58:53;1.10;;;1.10;;
6735;SDS011;3405;50.576;12.364;2023-02-22T13:01:24;1.45;;;1.30;;
6735;SDS011;3405;50.576;12.364;2023-02-22T13:03:50;1.23;;;1.13;;
6735;SDS011;3405;50.576;12.364;2023-02-22T13:11:32;1.50;;;1.38;;
6735;SDS011;3405;50.576;12.364;2023-02-22T13:16:56;1.55;;;1.20;;
6735;SDS011;3405;50.576;12.364;2023-02-22T13:21:56;1.20;;;1.10;;
6735;SDS011;3405;50.576;12.364;2023-02-22T13:27:14;1.20;;;1.10;;
6735;SDS011;3405;50.576;12.364;2023-02-22T13:29:49;1.20;;;1.10;;
6735;SDS011;3405;50.576;12.364;2023-02-22T13:35:03;1.23;;;1.02;;
6735;SDS011;3405;50.576;12.364;2023-02-22T13:37:53;1.42;;;1.33;;
6735;SDS011;3405;50.576;12.364;2023-02-22T13:40:46;1.77;;;1.25;;
6735;SDS011;3405;50.576;12.364;2023-02-22T13:51:14;1.00;;;1.00;;
6735;SDS011;3405;50.576;12.364;2023-02-22T13:53:50;0.95;;;0.90;;
6735;SDS011;3405;50.576;12.364;2023-02-22T13:56:20;1.33;;;1.00;;
6735;SDS011;3405;50.576;12.364;2023-02-22T13:59:19;1.50;;;1.40;;
6735;SDS011;3405;50.576;12.364;2023-02-22T14:01:41;1.70;;;1.30;;
6735;SDS011;3405;50.576;12.364;2023-02-22T14:06:52;1.10;;;1.00;;
6735;SDS011;3405;50.576;12.364;2023-02-22T14:12:02;2.50;;;1.20;;
6735;SDS011;3405;50.576;12.364;2023-02-22T14:14:28;2.75;;;1.13;;
6735;SDS011;3405;50.576;12.364;2023-02-22T14:19:39;2.15;;;1.20;;
6735;SDS011;3405;50.576;12.364;2023-02-22T14:22:05;1.30;;;1.17;;
6735;SDS011;3405;50.576;12.364;2023-02-22T14:25:05;1.17;;;1.10;;
6735;SDS011;3405;50.576;12.364;2023-02-22T14:27:24;3.05;;;1.20;;
6735;SDS011;3405;50.576;12.364;2023-02-22T14:30:03;3.05;;;1.13;;
6735;SDS011;3405;50.576;12.364;2023-02-22T14:32:30;1.50;;;1.40;;
6735;SDS011;3405;50.576;12.364;2023-02-22T14:34:57;1.70;;;1.30;;
6735;SDS011;3405;50.576;12.364;2023-02-22T14:37:28;3.58;;;1.40;;
6735;SDS011;3405;50.576;12.364;2023-02-22T14:43:12;2.00;;;1.20;;
6735;SDS011;3405;50.576;12.364;2023-02-22T14:45:51;1.08;;;1.05;;
6735;SDS011;3405;50.576;12.364;2023-02-22T14:51:03;2.80;;;0.98;;
6735;SDS011;3405;50.576;12.364;2023-02-22T14:53:39;1.75;;;0.95;;
6735;SDS011;3405;50.576;12.364;2023-02-22T14:56:07;1.02;;;0.93;;
6735;SDS011;3405;50.576;12.364;2023-02-22T14:58:39;2.45;;;1.00;;
6735;SDS011;3405;50.576;12.364;2023-02-22T15:01:26;0.95;;;0.88;;
6735;SDS011;3405;50.576;12.364;2023-02-22T15:03:54;1.58;;;1.10;;
6735;SDS011;3405;50.576;12.364;2023-02-22T15:06:23;1.15;;;0.95;;
6735;SDS011;3405;50.576;12.364;2023-02-22T15:09:04;3.05;;;1.08;;
6735;SDS011;3405;50.576;12.364;2023-02-22T15:11:31;0.93;;;0.93;;
6735;SDS011;3405;50.576;12.364;2023-02-22T15:13:57;1.25;;;1.15;;
6735;SDS011;3405;50.576;12.364;2023-02-22T15:16:28;1.40;;;1.27;;
6735;SDS011;3405;50.576;12.364;2023-02-22T15:18:57;1.20;;;1.00;;
6735;SDS011;3405;50.576;12.364;2023-02-22T15:21:24;1.20;;;0.95;;
6735;SDS011;3405;50.576;12.364;2023-02-22T15:23:52;1.20;;;1.10;;
6735;SDS011;3405;50.576;12.364;2023-02-22T15:26:21;1.38;;;1.27;;
6735;SDS011;3405;50.576;12.364;2023-02-22T15:28:51;1.70;;;1.00;;
6735;SDS011;3405;50.576;12.364;2023-02-22T15:31:22;1.98;;;1.10;;
6735;SDS011;3405;50.576;12.364;2023-02-22T15:33:49;1.35;;;1.05;;
6735;SDS011;3405;50.576;12.364;2023-02-22T15:36:17;0.93;;;0.90;;
6735;SDS011;3405;50.576;12.364;2023-02-22T15:38:50;1.00;;;0.90;;
6735;SDS011;3405;50.576;12.364;2023-02-22T15:41:20;2.70;;;1.10;;
6735;SDS011;3405;50.576;12.364;2023-02-22T15:43:58;1.27;;;1.17;;
6735;SDS011;3405;50.576;12.364;2023-02-22T15:46:24;1.30;;;1.20;;
6735;SDS011;3405;50.576;12.364;2023-02-22T15:49:03;1.95;;;1.52;;
6735;SDS011;3405;50.576;12.364;2023-02-22T15:51:29;1.10;;;0.90;;
6735;SDS011;3405;50.576;12.364;2023-02-22T15:53:57;1.33;;;1.02;;
6735;SDS011;3405;50.576;12.364;2023-02-22T15:56:26;2.72;;;1.08;;
6735;SDS011;3405;50.576;12.364;2023-02-22T15:59:04;2.08;;;1.25;;
6735;SDS011;3405;50.576;12.364;2023-02-22T16:01:36;0.73;;;0.70;;
6735;SDS011;3405;50.576;12.364;2023-02-22T16:04:03;1.45;;;0.98;;
6735;SDS011;3405;50.576;12.364;2023-02-22T16:06:30;1.00;;;0.90;;
6735;SDS011;3405;50.576;12.364;2023-02-22T16:09:32;2.35;;;0.90;;
6735;SDS011;3405;50.576;12.364;2023-02-22T16:12:06;1.00;;;1.00;;
6735;SDS011;3405;50.576;12.364;2023-02-22T16:19:48;1.63;;;1.10;;
6735;SDS011;3405;50.576;12.364;2023-02-22T16:24:52;2.55;;;1.30;;
6735;SDS011;3405;50.576;12.364;2023-02-22T16:27:22;1.55;;;1.00;;
6735;SDS011;3405;50.576;12.364;2023-02-22T16:30:05;2.38;;;1.20;;
6735;SDS011;3405;50.576;12.364;2023-02-22T16:32:32;1.88;;;1.20;;
6735;SDS011;3405;50.576;12.364;2023-02-22T16:34:58;2.35;;;1.33;;
6735;SDS011;3405;50.576;12.364;2023-02-22T16:37:23;2.15;;;1.13;;
6735;SDS011;3405;50.576;12.364;2023-02-22T16:39:52;2.95;;;1.30;;
6735;SDS011;3405;50.576;12.364;2023-02-22T16:42:18;2.30;;;1.30;;
6735;SDS011;3405;50.576;12.364;2023-02-22T16:44:48;1.90;;;1.20;;
6735;SDS011;3405;50.576;12.364;2023-02-22T16:47:14;2.53;;;1.27;;
6735;SDS011;3405;50.576;12.364;2023-02-22T16:49:40;4.90;;;1.70;;
6735;SDS011;3405;50.576;12.364;2023-02-22T16:52:06;1.88;;;1.30;;